sensor_id;sensor_type;location;lat;lon;timestamp;pressure;altitude;pressure_sealevel;temperature
76381;BMP280;65202;52.520;10.528;2023-05-07T00:00:04;101529.97;;;10.07
76381;BMP280;65202;52.520;10.528;2023-05-07T00:02:36;101539.34;;;10.24
76381;BMP280;65202;52.520;10.528;2023-05-07T00:05:05;101529.44;;;10.40
76381;BMP280;65202;52.520;10.528;2023-05-07T00:07:33;101530.75;;;10.78
76381;BMP280;65202;52.520;10.528;2023-05-07T00:10:01;101532.94;;;10.29
76381;BMP280;65202;52.520;10.528;2023-05-07T00:12:29;101531.38;;;10.31
76381;BMP280;65202;52.520;10.528;2023-05-07T00:15:02;101526.81;;;10.24
76381;BMP280;65202;52.520;10.528;2023-05-07T00:17:30;101532.66;;;10.10
76381;BMP280;65202;52.520;10.528;2023-05-07T00:19:58;101534.41;;;10.11
76381;BMP280;65202;52.520;10.528;2023-05-07T00:22:25;101530.38;;;10.27
76381;BMP280;65202;52.520;10.528;2023-05-07T00:24:52;101521.63;;;10.50
76381;BMP280;65202;52.520;10.528;2023-05-07T00:27:19;101528.81;;;10.15
76381;BMP280;65202;52.520;10.528;2023-05-07T00:29:47;101531.09;;;10.12
76381;BMP280;65202;52.520;10.528;2023-05-07T00:32:14;101524.47;;;10.12
76381;BMP280;65202;52.520;10.528;2023-05-07T00:34:42;101525.34;;;10.42
76381;BMP280;65202;52.520;10.528;2023-05-07T00:37:10;101519.22;;;10.37
76381;BMP280;65202;52.520;10.528;2023-05-07T00:39:38;101527.34;;;10.33
76381;BMP280;65202;52.520;10.528;2023-05-07T00:42:06;101531.47;;;10.18
76381;BMP280;65202;52.520;10.528;2023-05-07T00:44:33;101534.03;;;10.05
76381;BMP280;65202;52.520;10.528;2023-05-07T00:47:02;101518.81;;;10.44
76381;BMP280;65202;52.520;10.528;2023-05-07T00:49:39;101531.31;;;10.15
76381;BMP280;65202;52.520;10.528;2023-05-07T00:52:11;101532.06;;;10.28
76381;BMP280;65202;52.520;10.528;2023-05-07T00:54:41;101528.63;;;10.41
76381;BMP280;65202;52.520;10.528;2023-05-07T00:57:09;101528.63;;;10.26
76381;BMP280;65202;52.520;10.528;2023-05-07T00:59:38;101536.38;;;10.16
76381;BMP280;65202;52.520;10.528;2023-05-07T01:02:07;101526.28;;;10.15
76381;BMP280;65202;52.520;10.528;2023-05-07T01:04:34;101529.41;;;10.11
76381;BMP280;65202;52.520;10.528;2023-05-07T01:07:03;101529.22;;;10.08
76381;BMP280;65202;52.520;10.528;2023-05-07T01:09:31;101530.84;;;10.07
76381;BMP280;65202;52.520;10.528;2023-05-07T01:11:59;101531.72;;;10.08
76381;BMP280;65202;52.520;10.528;2023-05-07T01:14:26;101533.69;;;9.99
76381;BMP280;65202;52.520;10.528;2023-05-07T01:16:54;101528.03;;;10.16
76381;BMP280;65202;52.520;10.528;2023-05-07T01:19:21;101536.75;;;9.95
76381;BMP280;65202;52.520;10.528;2023-05-07T01:21:49;101530.94;;;10.09
76381;BMP280;65202;52.520;10.528;2023-05-07T01:24:18;101541.56;;;9.92
76381;BMP280;65202;52.520;10.528;2023-05-07T01:26:45;101532.22;;;10.17
76381;BMP280;65202;52.520;10.528;2023-05-07T01:29:12;101529.47;;;10.12
76381;BMP280;65202;52.520;10.528;2023-05-07T01:31:41;101527.19;;;10.30
76381;BMP280;65202;52.520;10.528;2023-05-07T01:34:11;101537.25;;;10.17
76381;BMP280;65202;52.520;10.528;2023-05-07T01:36:42;101548.78;;;10.01
76381;BMP280;65202;52.520;10.528;2023-05-07T01:39:11;101541.91;;;10.11
76381;BMP280;65202;52.520;10.528;2023-05-07T01:41:39;101541.56;;;9.92
76381;BMP280;65202;52.520;10.528;2023-05-07T01:44:07;101535.19;;;10.39
76381;BMP280;65202;52.520;10.528;2023-05-07T01:46:36;101535.88;;;10.36
76381;BMP280;65202;52.520;10.528;2023-05-07T01:49:04;101544.06;;;9.92
76381;BMP280;65202;52.520;10.528;2023-05-07T01:51:32;101548.53;;;9.83
76381;BMP280;65202;52.520;10.528;2023-05-07T01:54:00;101536.91;;;10.25
76381;BMP280;65202;52.520;10.528;2023-05-07T01:56:27;101547.09;;;10.28
76381;BMP280;65202;52.520;10.528;2023-05-07T01:58:54;101552.25;;;10.17
76381;BMP280;65202;52.520;10.528;2023-05-07T02:01:21;101562.50;;;9.80
76381;BMP280;65202;52.520;10.528;2023-05-07T02:03:49;101563.75;;;9.73
76381;BMP280;65202;52.520;10.528;2023-05-07T02:06:16;101553.09;;;10.03
76381;BMP280;65202;52.520;10.528;2023-05-07T02:08:43;101552.41;;;10.05
76381;BMP280;65202;52.520;10.528;2023-05-07T02:11:11;101560.47;;;9.87
76381;BMP280;65202;52.520;10.528;2023-05-07T02:13:38;101560.84;;;9.80
76381;BMP280;65202;52.520;10.528;2023-05-07T02:16:05;101552.25;;;10.03
76381;BMP280;65202;52.520;10.528;2023-05-07T02:18:33;101552.16;;;10.01
76381;BMP280;65202;52.520;10.528;2023-05-07T02:21:00;101560.38;;;9.58
76381;BMP280;65202;52.520;10.528;2023-05-07T02:23:27;101554.75;;;10.03
76381;BMP280;65202;52.520;10.528;2023-05-07T02:25:55;101554.84;;;10.18
76381;BMP280;65202;52.520;10.528;2023-05-07T02:28:22;101544.66;;;10.15
76381;BMP280;65202;52.520;10.528;2023-05-07T02:30:49;101555.84;;;9.80
76381;BMP280;65202;52.520;10.528;2023-05-07T02:33:17;101540.88;;;10.07
76381;BMP280;65202;52.520;10.528;2023-05-07T02:35:44;101545.34;;;10.13
76381;BMP280;65202;52.520;10.528;2023-05-07T02:38:11;101547.34;;;9.91
76381;BMP280;65202;52.520;10.528;2023-05-07T02:40:39;101555.19;;;9.83
76381;BMP280;65202;52.520;10.528;2023-05-07T02:43:06;101559.47;;;9.98
76381;BMP280;65202;52.520;10.528;2023-05-07T02:45:33;101553.63;;;9.98
76381;BMP280;65202;52.520;10.528;2023-05-07T02:48:00;101563.97;;;9.63
76381;BMP280;65202;52.520;10.528;2023-05-07T02:50:28;101561.63;;;9.79
76381;BMP280;65202;52.520;10.528;2023-05-07T02:52:55;101559.56;;;9.72
76381;BMP280;65202;52.520;10.528;2023-05-07T02:55:22;101565.63;;;9.63
76381;BMP280;65202;52.520;10.528;2023-05-07T02:57:49;101567.28;;;9.49
76381;BMP280;65202;52.520;10.528;2023-05-07T03:00:18;101563.56;;;10.10
76381;BMP280;65202;52.520;10.528;2023-05-07T03:02:46;101570.56;;;9.89
76381;BMP280;65202;52.520;10.528;2023-05-07T03:05:13;101568.31;;;10.06
76381;BMP280;65202;52.520;10.528;2023-05-07T03:07:41;101571.16;;;9.72
76381;BMP280;65202;52.520;10.528;2023-05-07T03:10:12;101566.47;;;9.76
76381;BMP280;65202;52.520;10.528;2023-05-07T03:12:39;101562.75;;;9.84
76381;BMP280;65202;52.520;10.528;2023-05-07T03:15:07;101562.69;;;9.42
76381;BMP280;65202;52.520;10.528;2023-05-07T03:17:34;101568.97;;;9.63
76381;BMP280;65202;52.520;10.528;2023-05-07T03:20:02;101564.72;;;9.75
76381;BMP280;65202;52.520;10.528;2023-05-07T03:22:29;101564.41;;;9.56
76381;BMP280;65202;52.520;10.528;2023-05-07T03:24:57;101568.13;;;9.90
76381;BMP280;65202;52.520;10.528;2023-05-07T03:27:24;101561.47;;;9.91
76381;BMP280;65202;52.520;10.528;2023-05-07T03:29:51;101560.47;;;9.74
76381;BMP280;65202;52.520;10.528;2023-05-07T03:32:18;101557.50;;;9.80
76381;BMP280;65202;52.520;10.528;2023-05-07T03:34:45;101550.84;;;9.80
76381;BMP280;65202;52.520;10.528;2023-05-07T03:37:13;101553.97;;;9.63
76381;BMP280;65202;52.520;10.528;2023-05-07T03:39:40;101542.22;;;9.75
76381;BMP280;65202;52.520;10.528;2023-05-07T03:42:07;101541.94;;;9.31
76381;BMP280;65202;52.520;10.528;2023-05-07T03:44:34;101552.34;;;9.64
76381;BMP280;65202;52.520;10.528;2023-05-07T03:47:03;101561.50;;;9.50
76381;BMP280;65202;52.520;10.528;2023-05-07T03:49:31;101567.44;;;9.65
76381;BMP280;65202;52.520;10.528;2023-05-07T03:51:58;101562.41;;;9.51
76381;BMP280;65202;52.520;10.528;2023-05-07T03:54:25;101566.22;;;9.86
76381;BMP280;65202;52.520;10.528;2023-05-07T03:56:52;101560.78;;;9.79
76381;BMP280;65202;52.520;10.528;2023-05-07T03:59:19;101558.28;;;10.06
76381;BMP280;65202;52.520;10.528;2023-05-07T04:01:47;101564.66;;;10.01
76381;BMP280;65202;52.520;10.528;2023-05-07T04:04:15;101566.88;;;9.97
76381;BMP280;65202;52.520;10.528;2023-05-07T04:06:43;101557.63;;;9.96
76381;BMP280;65202;52.520;10.528;2023-05-07T04:09:10;101571.25;;;9.73
76381;BMP280;65202;52.520;10.528;2023-05-07T04:11:37;101557.25;;;10.03
76381;BMP280;65202;52.520;10.528;2023-05-07T04:14:06;101569.56;;;9.72
76381;BMP280;65202;52.520;10.528;2023-05-07T04:16:35;101571.63;;;9.79
76381;BMP280;65202;52.520;10.528;2023-05-07T04:19:02;101571.25;;;9.73
76381;BMP280;65202;52.520;10.528;2023-05-07T04:21:29;101566.09;;;9.70
76381;BMP280;65202;52.520;10.528;2023-05-07T04:23:56;101563.88;;;9.75
76381;BMP280;65202;52.520;10.528;2023-05-07T04:26:24;101577.22;;;9.75
76381;BMP280;65202;52.520;10.528;2023-05-07T04:28:51;101571.78;;;9.95
76381;BMP280;65202;52.520;10.528;2023-05-07T04:31:18;101575.34;;;9.99
76381;BMP280;65202;52.520;10.528;2023-05-07T04:33:45;101578.97;;;9.63
76381;BMP280;65202;52.520;10.528;2023-05-07T04:36:12;101581.69;;;9.94
76381;BMP280;65202;52.520;10.528;2023-05-07T04:38:40;101577.06;;;9.59
76381;BMP280;65202;52.520;10.528;2023-05-07T04:41:08;101584.56;;;9.72
76381;BMP280;65202;52.520;10.528;2023-05-07T04:43:36;101586.25;;;9.86
76381;BMP280;65202;52.520;10.528;2023-05-07T04:46:03;101581.47;;;9.76
76381;BMP280;65202;52.520;10.528;2023-05-07T04:48:30;101587.41;;;9.51
76381;BMP280;65202;52.520;10.528;2023-05-07T04:50:57;101593.59;;;9.70
76381;BMP280;65202;52.520;10.528;2023-05-07T04:53:25;101592.28;;;9.62
76381;BMP280;65202;52.520;10.528;2023-05-07T04:55:56;101596.63;;;9.79
76381;BMP280;65202;52.520;10.528;2023-05-07T04:58:24;101609.88;;;9.64
76381;BMP280;65202;52.520;10.528;2023-05-07T05:00:51;101617.28;;;9.62
76381;BMP280;65202;52.520;10.528;2023-05-07T05:03:18;101620.00;;;9.52
76381;BMP280;65202;52.520;10.528;2023-05-07T05:05:46;101616.09;;;9.70
76381;BMP280;65202;52.520;10.528;2023-05-07T05:08:15;101622.22;;;10.01
76381;BMP280;65202;52.520;10.528;2023-05-07T05:10:43;101622.19;;;9.88
76381;BMP280;65202;52.520;10.528;2023-05-07T05:13:10;101628.84;;;9.88
76381;BMP280;65202;52.520;10.528;2023-05-07T05:15:39;101630.25;;;9.57
76381;BMP280;65202;52.520;10.528;2023-05-07T05:18:07;101629.19;;;9.66
76381;BMP280;65202;52.520;10.528;2023-05-07T05:20:34;101642.84;;;9.71
76381;BMP280;65202;52.520;10.528;2023-05-07T05:23:01;101634.09;;;9.65
76381;BMP280;65202;52.520;10.528;2023-05-07T05:25:28;101622.84;;;9.71
76381;BMP280;65202;52.520;10.528;2023-05-07T05:27:55;101625.94;;;9.95
76381;BMP280;65202;52.520;10.528;2023-05-07T05:30:23;101630.16;;;9.96
76381;BMP280;65202;52.520;10.528;2023-05-07T05:32:50;101629.09;;;9.92
76381;BMP280;65202;52.520;10.528;2023-05-07T05:35:18;101629.72;;;10.01
76381;BMP280;65202;52.520;10.528;2023-05-07T05:37:45;101631.19;;;9.72
76381;BMP280;65202;52.520;10.528;2023-05-07T05:40:12;101624.03;;;9.91
76381;BMP280;65202;52.520;10.528;2023-05-07T05:42:39;101620.59;;;9.76
76381;BMP280;65202;52.520;10.528;2023-05-07T05:45:07;101632.13;;;9.87
76381;BMP280;65202;52.520;10.528;2023-05-07T05:47:35;101635.38;;;9.86
76381;BMP280;65202;52.520;10.528;2023-05-07T05:50:02;101627.19;;;9.88
76381;BMP280;65202;52.520;10.528;2023-05-07T05:52:30;101646.34;;;10.01
76381;BMP280;65202;52.520;10.528;2023-05-07T05:54:57;101640.03;;;9.80
76381;BMP280;65202;52.520;10.528;2023-05-07T05:57:24;101631.72;;;10.06
76381;BMP280;65202;52.520;10.528;2023-05-07T05:59:54;101633.91;;;10.02
76381;BMP280;65202;52.520;10.528;2023-05-07T06:02:21;101645.38;;;10.26
76381;BMP280;65202;52.520;10.528;2023-05-07T06:04:49;101647.34;;;10.17
76381;BMP280;65202;52.520;10.528;2023-05-07T06:07:16;101647.72;;;10.23
76381;BMP280;65202;52.520;10.528;2023-05-07T06:09:43;101649.22;;;10.34
76381;BMP280;65202;52.520;10.528;2023-05-07T06:12:11;101655.97;;;10.07
76381;BMP280;65202;52.520;10.528;2023-05-07T06:14:39;101652.19;;;10.14
76381;BMP280;65202;52.520;10.528;2023-05-07T06:17:07;101657.88;;;10.11
76381;BMP280;65202;52.520;10.528;2023-05-07T06:19:34;101646.81;;;9.95
76381;BMP280;65202;52.520;10.528;2023-05-07T06:22:02;101654.38;;;9.82
76381;BMP280;65202;52.520;10.528;2023-05-07T06:24:29;101658.41;;;9.80
76381;BMP280;65202;52.520;10.528;2023-05-07T06:26:57;101655.81;;;10.19
76381;BMP280;65202;52.520;10.528;2023-05-07T06:29:25;101662.25;;;10.01
76381;BMP280;65202;52.520;10.528;2023-05-07T06:31:53;101670.13;;;9.81
76381;BMP280;65202;52.520;10.528;2023-05-07T06:34:20;101652.41;;;10.04
76381;BMP280;65202;52.520;10.528;2023-05-07T06:36:48;101654.47;;;10.38
76381;BMP280;65202;52.520;10.528;2023-05-07T06:39:15;101656.94;;;9.97
76381;BMP280;65202;52.520;10.528;2023-05-07T06:41:42;101660.59;;;10.02
76381;BMP280;65202;52.520;10.528;2023-05-07T06:44:09;101652.56;;;10.20
76381;BMP280;65202;52.520;10.528;2023-05-07T06:46:36;101657.44;;;10.18
76381;BMP280;65202;52.520;10.528;2023-05-07T06:49:04;101663.34;;;10.19
76381;BMP280;65202;52.520;10.528;2023-05-07T06:51:31;101659.00;;;10.16
76381;BMP280;65202;52.520;10.528;2023-05-07T06:53:59;101655.81;;;10.19
76381;BMP280;65202;52.520;10.528;2023-05-07T06:56:26;101660.84;;;9.93
76381;BMP280;65202;52.520;10.528;2023-05-07T06:58:53;101656.81;;;9.95
76381;BMP280;65202;52.520;10.528;2023-05-07T07:01:20;101662.59;;;9.94
76381;BMP280;65202;52.520;10.528;2023-05-07T07:03:47;101659.91;;;10.04
76381;BMP280;65202;52.520;10.528;2023-05-07T07:06:15;101661.81;;;10.08
76381;BMP280;65202;52.520;10.528;2023-05-07T07:08:42;101661.28;;;9.99
76381;BMP280;65202;52.520;10.528;2023-05-07T07:11:10;101648.25;;;9.92
76381;BMP280;65202;52.520;10.528;2023-05-07T07:13:37;101660.28;;;10.10
76381;BMP280;65202;52.520;10.528;2023-05-07T07:16:04;101675.47;;;10.13
76381;BMP280;65202;52.520;10.528;2023-05-07T07:18:31;101672.19;;;10.41
76381;BMP280;65202;52.520;10.528;2023-05-07T07:20:58;101666.22;;;10.25
76381;BMP280;65202;52.520;10.528;2023-05-07T07:23:26;101664.09;;;10.18
76381;BMP280;65202;52.520;10.528;2023-05-07T07:25:53;101666.53;;;10.31
76381;BMP280;65202;52.520;10.528;2023-05-07T07:28:21;101664.47;;;10.24
76381;BMP280;65202;52.520;10.528;2023-05-07T07:30:48;101669.47;;;10.24
76381;BMP280;65202;52.520;10.528;2023-05-07T07:33:16;101665.16;;;10.21
76381;BMP280;65202;52.520;10.528;2023-05-07T07:35:43;101663.03;;;10.27
76381;BMP280;65202;52.520;10.528;2023-05-07T07:38:10;101666.09;;;10.23
76381;BMP280;65202;52.520;10.528;2023-05-07T07:40:38;101672.28;;;10.43
76381;BMP280;65202;52.520;10.528;2023-05-07T07:43:05;101676.44;;;10.57
76381;BMP280;65202;52.520;10.528;2023-05-07T07:45:33;101671.59;;;10.45
76381;BMP280;65202;52.520;10.528;2023-05-07T07:48:00;101672.38;;;10.44
76381;BMP280;65202;52.520;10.528;2023-05-07T07:50:27;101687.25;;;10.56
76381;BMP280;65202;52.520;10.528;2023-05-07T07:53:10;101684.94;;;10.59
76381;BMP280;65202;52.520;10.528;2023-05-07T07:55:38;101685.19;;;10.36
76381;BMP280;65202;52.520;10.528;2023-05-07T07:58:07;101682.44;;;10.59
76381;BMP280;65202;52.520;10.528;2023-05-07T08:00:36;101692.94;;;10.53
76381;BMP280;65202;52.520;10.528;2023-05-07T08:03:03;101690.41;;;10.39
76381;BMP280;65202;52.520;10.528;2023-05-07T08:05:32;101689.66;;;10.40
76381;BMP280;65202;52.520;10.528;2023-05-07T08:07:59;101696.00;;;10.76
76381;BMP280;65202;52.520;10.528;2023-05-07T08:10:26;101682.34;;;10.71
76381;BMP280;65202;52.520;10.528;2023-05-07T08:12:53;101689.03;;;10.71
76381;BMP280;65202;52.520;10.528;2023-05-07T08:15:21;101699.28;;;10.61
76381;BMP280;65202;52.520;10.528;2023-05-07T08:17:48;101688.22;;;10.72
76381;BMP280;65202;52.520;10.528;2023-05-07T08:20:15;101689.25;;;10.75
76381;BMP280;65202;52.520;10.528;2023-05-07T08:22:42;101685.13;;;10.90
76381;BMP280;65202;52.520;10.528;2023-05-07T08:25:10;101697.66;;;10.90
76381;BMP280;65202;52.520;10.528;2023-05-07T08:27:37;101692.53;;;10.74
76381;BMP280;65202;52.520;10.528;2023-05-07T08:30:05;101707.03;;;10.66
76381;BMP280;65202;52.520;10.528;2023-05-07T08:32:32;101683.31;;;10.88
76381;BMP280;65202;52.520;10.528;2023-05-07T08:35:00;101698.31;;;10.73
76381;BMP280;65202;52.520;10.528;2023-05-07T08:37:27;101688.75;;;10.95
76381;BMP280;65202;52.520;10.528;2023-05-07T08:39:54;101689.00;;;10.85
76381;BMP280;65202;52.520;10.528;2023-05-07T08:42:23;101710.19;;;10.90
76381;BMP280;65202;52.520;10.528;2023-05-07T08:44:51;101700.91;;;10.61
76381;BMP280;65202;52.520;10.528;2023-05-07T08:47:23;101693.59;;;10.78
76381;BMP280;65202;52.520;10.528;2023-05-07T08:49:56;101707.03;;;10.66
76381;BMP280;65202;52.520;10.528;2023-05-07T08:52:23;101703.75;;;10.67
76381;BMP280;65202;52.520;10.528;2023-05-07T08:54:51;101719.69;;;10.81
76381;BMP280;65202;52.520;10.528;2023-05-07T08:57:18;101705.59;;;11.12
76381;BMP280;65202;52.520;10.528;2023-05-07T08:59:47;101709.94;;;11.00
76381;BMP280;65202;52.520;10.528;2023-05-07T09:02:14;101703.09;;;11.12
76381;BMP280;65202;52.520;10.528;2023-05-07T09:04:43;101709.16;;;11.01
76381;BMP280;65202;52.520;10.528;2023-05-07T09:07:10;101707.28;;;10.97
76381;BMP280;65202;52.520;10.528;2023-05-07T09:09:37;101713.28;;;10.86
76381;BMP280;65202;52.520;10.528;2023-05-07T09:12:05;101701.66;;;11.01
76381;BMP280;65202;52.520;10.528;2023-05-07T09:14:32;101694.97;;;11.30
76381;BMP280;65202;52.520;10.528;2023-05-07T09:17:00;101703.03;;;11.25
76381;BMP280;65202;52.520;10.528;2023-05-07T09:19:27;101704.84;;;11.13
76381;BMP280;65202;52.520;10.528;2023-05-07T09:22:02;101700.41;;;11.38
76381;BMP280;65202;52.520;10.528;2023-05-07T09:24:31;101707.91;;;11.67
76381;BMP280;65202;52.520;10.528;2023-05-07T09:27:02;101699.63;;;11.53
76381;BMP280;65202;52.520;10.528;2023-05-07T09:29:29;101701.19;;;11.37
76381;BMP280;65202;52.520;10.528;2023-05-07T09:32:03;101703.81;;;11.53
76381;BMP280;65202;52.520;10.528;2023-05-07T09:34:32;101707.59;;;11.46
76381;BMP280;65202;52.520;10.528;2023-05-07T09:37:01;101705.16;;;11.62
76381;BMP280;65202;52.520;10.528;2023-05-07T09:39:42;101702.25;;;11.55
76381;BMP280;65202;52.520;10.528;2023-05-07T09:42:11;101703.94;;;11.56
76381;BMP280;65202;52.520;10.528;2023-05-07T09:44:39;101711.69;;;11.75
76381;BMP280;65202;52.520;10.528;2023-05-07T09:47:07;101711.88;;;11.78
76381;BMP280;65202;52.520;10.528;2023-05-07T09:49:37;101698.03;;;11.70
76381;BMP280;65202;52.520;10.528;2023-05-07T09:52:06;101700.75;;;11.89
76381;BMP280;65202;52.520;10.528;2023-05-07T09:54:36;101704.97;;;12.04
76381;BMP280;65202;52.520;10.528;2023-05-07T09:57:05;101701.19;;;12.12
76381;BMP280;65202;52.520;10.528;2023-05-07T09:59:34;101703.56;;;12.09
76381;BMP280;65202;52.520;10.528;2023-05-07T10:02:04;101706.88;;;11.78
76381;BMP280;65202;52.520;10.528;2023-05-07T10:04:33;101711.19;;;12.26
76381;BMP280;65202;52.520;10.528;2023-05-07T10:07:02;101709.13;;;12.19
76381;BMP280;65202;52.520;10.528;2023-05-07T10:09:31;101721.97;;;12.09
76381;BMP280;65202;52.520;10.528;2023-05-07T10:11:59;101722.28;;;11.99
76381;BMP280;65202;52.520;10.528;2023-05-07T10:14:27;101723.84;;;12.13
76381;BMP280;65202;52.520;10.528;2023-05-07T10:16:55;101719.41;;;12.08
76381;BMP280;65202;52.520;10.528;2023-05-07T10:19:24;101713.19;;;12.01
76381;BMP280;65202;52.520;10.528;2023-05-07T10:22:00;101711.34;;;12.29
76381;BMP280;65202;52.520;10.528;2023-05-07T10:24:32;101723.72;;;12.10
76381;BMP280;65202;52.520;10.528;2023-05-07T10:27:06;101723.03;;;11.98
76381;BMP280;65202;52.520;10.528;2023-05-07T10:32:56;101719.63;;;11.96
76381;BMP280;65202;52.520;10.528;2023-05-07T10:35:39;101718.09;;;11.84
76381;BMP280;65202;52.520;10.528;2023-05-07T10:38:08;101712.72;;;11.93
76381;BMP280;65202;52.520;10.528;2023-05-07T10:40:36;101716.56;;;11.72
76381;BMP280;65202;52.520;10.528;2023-05-07T10:43:04;101721.72;;;11.75
76381;BMP280;65202;52.520;10.528;2023-05-07T10:45:36;101725.97;;;11.90
76381;BMP280;65202;52.520;10.528;2023-05-07T10:48:16;101727.69;;;12.07
76381;BMP280;65202;52.520;10.528;2023-05-07T10:51:18;101716.69;;;11.89
76381;BMP280;65202;52.520;10.528;2023-05-07T10:53:47;101719.75;;;11.84
76381;BMP280;65202;52.520;10.528;2023-05-07T10:58:45;101706.94;;;12.57
76381;BMP280;65202;52.520;10.528;2023-05-07T11:01:12;101716.84;;;12.70
76381;BMP280;65202;52.520;10.528;2023-05-07T11:04:12;101716.78;;;12.53
76381;BMP280;65202;52.520;10.528;2023-05-07T11:06:41;101729.34;;;12.53
76381;BMP280;65202;52.520;10.528;2023-05-07T11:09:08;101731.97;;;12.56
76381;BMP280;65202;52.520;10.528;2023-05-07T11:11:50;101723.91;;;12.45
76381;BMP280;65202;52.520;10.528;2023-05-07T11:17:12;101723.44;;;12.68
76381;BMP280;65202;52.520;10.528;2023-05-07T11:19:53;101724.06;;;12.48
76381;BMP280;65202;52.520;10.528;2023-05-07T11:22:36;101731.09;;;12.07
76381;BMP280;65202;52.520;10.528;2023-05-07T11:25:06;101730.88;;;12.19
76381;BMP280;65202;52.520;10.528;2023-05-07T11:27:34;101729.63;;;12.43
76381;BMP280;65202;52.520;10.528;2023-05-07T11:30:02;101728.94;;;12.45
76381;BMP280;65202;52.520;10.528;2023-05-07T11:32:31;101727.81;;;12.24
76381;BMP280;65202;52.520;10.528;2023-05-07T11:35:00;101734.00;;;12.31
76381;BMP280;65202;52.520;10.528;2023-05-07T11:37:28;101724.38;;;12.38
76381;BMP280;65202;52.520;10.528;2023-05-07T11:40:07;101732.84;;;12.56
76381;BMP280;65202;52.520;10.528;2023-05-07T11:42:39;101735.44;;;12.42
76381;BMP280;65202;52.520;10.528;2023-05-07T11:45:08;101729.34;;;12.53
76381;BMP280;65202;52.520;10.528;2023-05-07T11:47:36;101728.22;;;12.48
76381;BMP280;65202;52.520;10.528;2023-05-07T11:50:05;101724.19;;;12.51
76381;BMP280;65202;52.520;10.528;2023-05-07T11:52:35;101721.69;;;12.83
76381;BMP280;65202;52.520;10.528;2023-05-07T11:55:02;101720.72;;;12.81
76381;BMP280;65202;52.520;10.528;2023-05-07T11:57:32;101730.19;;;12.53
76381;BMP280;65202;52.520;10.528;2023-05-07T12:00:01;101733.72;;;12.57
76381;BMP280;65202;52.520;10.528;2023-05-07T12:02:30;101726.47;;;12.78
76381;BMP280;65202;52.520;10.528;2023-05-07T12:05:00;101720.59;;;12.78
76381;BMP280;65202;52.520;10.528;2023-05-07T12:07:27;101723.41;;;13.00
76381;BMP280;65202;52.520;10.528;2023-05-07T12:09:54;101735.31;;;13.04
76381;BMP280;65202;52.520;10.528;2023-05-07T12:12:22;101723.00;;;13.08
76381;BMP280;65202;52.520;10.528;2023-05-07T12:14:49;101727.31;;;13.11
76381;BMP280;65202;52.520;10.528;2023-05-07T12:17:16;101714.72;;;13.26
76381;BMP280;65202;52.520;10.528;2023-05-07T12:19:44;101718.78;;;13.24
76381;BMP280;65202;52.520;10.528;2023-05-07T12:22:12;101713.63;;;13.56
76381;BMP280;65202;52.520;10.528;2023-05-07T12:24:56;101722.75;;;13.54
76381;BMP280;65202;52.520;10.528;2023-05-07T12:27:25;101728.22;;;13.46
76381;BMP280;65202;52.520;10.528;2023-05-07T12:29:53;101722.28;;;13.11
76381;BMP280;65202;52.520;10.528;2023-05-07T12:32:21;101718.66;;;13.22
76381;BMP280;65202;52.520;10.528;2023-05-07T12:34:51;101714.97;;;13.32
76381;BMP280;65202;52.520;10.528;2023-05-07T12:37:25;101723.03;;;13.25
76381;BMP280;65202;52.520;10.528;2023-05-07T12:40:10;101724.75;;;13.26
76381;BMP280;65202;52.520;10.528;2023-05-07T12:42:40;101725.94;;;13.50
76381;BMP280;65202;52.520;10.528;2023-05-07T12:45:11;101730.59;;;13.60
76381;BMP280;65202;52.520;10.528;2023-05-07T12:47:44;101715.41;;;13.76
76381;BMP280;65202;52.520;10.528;2023-05-07T12:50:13;101725.91;;;13.85
76381;BMP280;65202;52.520;10.528;2023-05-07T12:52:47;101723.47;;;13.69
76381;BMP280;65202;52.520;10.528;2023-05-07T12:55:16;101719.56;;;13.93
76381;BMP280;65202;52.520;10.528;2023-05-07T12:57:50;101707.00;;;14.10
76381;BMP280;65202;52.520;10.528;2023-05-07T13:00:38;101717.00;;;14.09
76381;BMP280;65202;52.520;10.528;2023-05-07T13:03:05;101708.69;;;13.75
76381;BMP280;65202;52.520;10.528;2023-05-07T13:05:32;101704.06;;;13.49
76381;BMP280;65202;52.520;10.528;2023-05-07T13:08:00;101705.88;;;13.69
76381;BMP280;65202;52.520;10.528;2023-05-07T13:10:28;101706.66;;;13.68
76381;BMP280;65202;52.520;10.528;2023-05-07T13:12:55;101714.34;;;13.71
76381;BMP280;65202;52.520;10.528;2023-05-07T13:15:22;101721.03;;;13.53
76381;BMP280;65202;52.520;10.528;2023-05-07T13:17:50;101713.25;;;13.66
76381;BMP280;65202;52.520;10.528;2023-05-07T13:20:17;101707.31;;;13.64
76381;BMP280;65202;52.520;10.528;2023-05-07T13:22:44;101696.88;;;13.74
76381;BMP280;65202;52.520;10.528;2023-05-07T13:25:12;101703.31;;;14.04
76381;BMP280;65202;52.520;10.528;2023-05-07T13:27:39;101707.78;;;14.09
76381;BMP280;65202;52.520;10.528;2023-05-07T13:30:07;101693.13;;;14.20
76381;BMP280;65202;52.520;10.528;2023-05-07T13:32:34;101692.63;;;14.27
76381;BMP280;65202;52.520;10.528;2023-05-07T13:35:02;101680.66;;;14.60
76381;BMP280;65202;52.520;10.528;2023-05-07T13:37:29;101685.53;;;14.76
76381;BMP280;65202;52.520;10.528;2023-05-07T13:39:56;101681.53;;;14.61
76381;BMP280;65202;52.520;10.528;2023-05-07T13:42:23;101694.81;;;14.38
76381;BMP280;65202;52.520;10.528;2023-05-07T13:44:50;101676.56;;;15.02
76381;BMP280;65202;52.520;10.528;2023-05-07T13:47:17;101681.81;;;14.87
76381;BMP280;65202;52.520;10.528;2023-05-07T13:49:45;101674.06;;;14.83
76381;BMP280;65202;52.520;10.528;2023-05-07T13:52:12;101677.16;;;14.57
76381;BMP280;65202;52.520;10.528;2023-05-07T13:54:39;101670.81;;;14.85
76381;BMP280;65202;52.520;10.528;2023-05-07T13:57:07;101678.00;;;14.57
76381;BMP280;65202;52.520;10.528;2023-05-07T13:59:34;101669.91;;;14.64
76381;BMP280;65202;52.520;10.528;2023-05-07T14:02:01;101682.31;;;14.60
76381;BMP280;65202;52.520;10.528;2023-05-07T14:04:30;101670.69;;;15.03